Time;durP1;ratioP1;P1;durP2;ratioP2;P2;SDS_P1;SDS_P2;PMS_P1;PMS_P2;Temp;Humidity;BMP_temperature;BMP_pressure;BME280_temperature;BME280_humidity;BME280_pressure;Samples;Min_cycle;Max_cycle;Signal;HPM_P1;HPM_P2
2023/01/09 00:00:35;;;;;;;6.00;5.40;;;6.00;99.90;;;;;;4998624;28;20519;-51
2023/01/09 00:03:02;;;;;;;7.53;6.00;;;6.00;99.90;;;;;;4994232;28;20557;-51
2023/01/09 00:05:29;;;;;;;5.50;5.00;;;6.00;99.90;;;;;;4991849;28;20872;-51
2023/01/09 00:07:55;;;;;;;5.73;5.17;;;6.00;99.90;;;;;;4990426;28;20491;-51
2023/01/09 00:10:22;;;;;;;6.03;5.53;;;6.00;99.90;;;;;;5000154;28;20459;-50
2023/01/09 00:12:50;;;;;;;5.03;4.63;;;5.90;99.90;;;;;;4992200;28;20828;-51
2023/01/09 00:15:16;;;;;;;5.00;4.50;;;5.80;99.90;;;;;;4995295;28;20478;-51
2023/01/09 00:17:43;;;;;;;5.27;4.80;;;5.80;99.90;;;;;;4985423;28;20574;-51
2023/01/09 00:20:11;;;;;;;4.87;4.47;;;5.90;99.90;;;;;;4990621;28;20505;-51
2023/01/09 00:22:37;;;;;;;5.77;5.27;;;5.90;99.90;;;;;;4989132;28;20520;-50
2023/01/09 00:25:05;;;;;;;6.17;5.67;;;5.90;99.90;;;;;;4991243;28;20456;-50
2023/01/09 00:27:32;;;;;;;5.63;5.13;;;5.90;99.90;;;;;;4995896;28;20490;-50
2023/01/09 00:30:01;;;;;;;5.63;5.10;;;5.80;99.90;;;;;;5007372;28;20525;-50
2023/01/09 00:32:28;;;;;;;6.37;5.43;;;5.80;99.90;;;;;;4992360;28;20472;-51
2023/01/09 00:34:55;;;;;;;4.93;4.63;;;5.80;99.90;;;;;;5007188;28;20467;-50
2023/01/09 00:37:22;;;;;;;4.70;4.30;;;5.80;99.90;;;;;;4992188;28;20530;-50
2023/01/09 00:39:49;;;;;;;4.50;4.10;;;5.70;99.90;;;;;;4987737;28;20514;-51
2023/01/09 00:42:22;;;;;;;6.87;6.20;;;5.70;99.90;;;;;;4990242;28;20823;-51
2023/01/09 00:44:53;;;;;;;5.80;5.30;;;5.70;99.90;;;;;;4973849;28;20456;-51
2023/01/09 00:47:26;;;;;;;6.47;5.80;;;5.60;99.90;;;;;;4989934;28;21002;-50
2023/01/09 00:49:54;;;;;;;6.57;5.97;;;5.60;99.90;;;;;;4991243;28;20879;-50
2023/01/09 00:52:22;;;;;;;6.63;5.53;;;5.60;99.90;;;;;;4990467;28;20990;-50
2023/01/09 00:54:49;;;;;;;7.30;6.40;;;5.50;99.90;;;;;;4990539;28;20463;-50
2023/01/09 00:57:16;;;;;;;6.20;5.70;;;5.50;99.90;;;;;;5001492;28;20479;-50
2023/01/09 00:59:44;;;;;;;6.27;5.67;;;5.50;99.90;;;;;;4993897;28;20499;-50
2023/01/09 01:02:10;;;;;;;7.70;6.97;;;5.50;99.90;;;;;;4989144;28;20506;-51
2023/01/09 01:07:42;;;;;;;7.80;7.10;;;5.30;99.90;;;;;;4992897;28;20455;-51
2023/01/09 01:10:11;;;;;;;7.13;6.43;;;5.30;99.90;;;;;;4995959;28;20467;-51
2023/01/09 01:12:38;;;;;;;7.43;6.73;;;5.20;99.90;;;;;;4995903;28;20929;-51
2023/01/09 01:15:05;;;;;;;8.40;7.60;;;5.20;99.90;;;;;;4993186;28;20503;-51
2023/01/09 01:17:34;;;;;;;7.53;6.80;;;5.20;99.90;;;;;;5000299;28;20539;-51
2023/01/09 01:20:02;;;;;;;8.20;7.40;;;5.10;99.90;;;;;;4993102;28;20503;-51
2023/01/09 01:22:29;;;;;;;8.70;7.80;;;5.10;99.90;;;;;;4993017;28;20555;-51
2023/01/09 01:24:55;;;;;;;9.63;8.60;;;5.10;99.90;;;;;;4994700;28;20514;-52
2023/01/09 01:27:22;;;;;;;8.00;7.20;;;5.10;99.90;;;;;;4994849;28;20530;-50
2023/01/09 01:29:49;;;;;;;8.77;7.77;;;5.00;99.90;;;;;;4993342;28;20499;-51
2023/01/09 01:32:16;;;;;;;9.67;7.23;;;5.00;99.90;;;;;;4994585;28;20484;-51
2023/01/09 01:34:43;;;;;;;8.30;7.33;;;5.00;99.90;;;;;;4998371;28;20460;-50
2023/01/09 01:37:11;;;;;;;8.20;7.40;;;4.90;99.90;;;;;;4992407;28;20487;-51
2023/01/09 01:39:37;;;;;;;8.33;7.53;;;4.90;99.90;;;;;;4992675;28;20958;-51
2023/01/09 01:42:04;;;;;;;7.87;7.07;;;4.90;99.90;;;;;;4994100;28;20591;-51
2023/01/09 01:45:00;;;;;;;9.00;8.10;;;4.80;99.90;;;;;;4999555;28;20607;-50
2023/01/09 01:47:32;;;;;;;8.33;7.47;;;4.70;99.90;;;;;;4993500;28;21060;-51
2023/01/09 01:50:01;;;;;;;9.23;8.00;;;4.70;99.90;;;;;;4993986;28;21010;-50
2023/01/09 01:52:30;;;;;;;8.83;7.93;;;4.60;99.90;;;;;;4990475;28;21191;-51
2023/01/09 01:54:57;;;;;;;7.50;6.87;;;4.60;99.90;;;;;;4992474;28;20475;-51
2023/01/09 01:57:24;;;;;;;9.67;8.67;;;4.60;99.90;;;;;;4995355;28;20526;-51
2023/01/09 01:59:55;;;;;;;8.83;7.97;;;4.60;99.90;;;;;;4993289;28;20499;-50
2023/01/09 02:02:28;;;;;;;9.20;7.80;;;4.60;99.90;;;;;;4994337;28;20519;-50
2023/01/09 02:04:57;;;;;;;8.67;7.67;;;4.60;99.90;;;;;;4995129;28;20459;-51
2023/01/09 02:07:23;;;;;;;10.10;8.90;;;4.70;99.90;;;;;;4990993;28;20522;-52
2023/01/09 02:09:52;;;;;;;9.10;8.20;;;4.60;99.90;;;;;;4993621;28;20491;-50
2023/01/09 02:12:22;;;;;;;9.47;8.47;;;4.70;99.90;;;;;;4993696;28;20487;-50
2023/01/09 02:14:52;;;;;;;10.33;9.23;;;4.60;99.90;;;;;;4987834;28;20475;-51
2023/01/09 02:17:33;;;;;;;10.47;8.80;;;4.60;99.90;;;;;;4991671;28;20528;-51
2023/01/09 02:20:39;;;;;;;9.47;8.57;;;4.60;99.90;;;;;;4991041;28;20501;-51
2023/01/09 02:24:00;;;;;;;10.03;8.47;;;4.50;99.90;;;;;;4975298;28;20468;-51
2023/01/09 02:26:55;;;;;;;12.20;8.60;;;4.50;99.90;;;;;;4991696;28;20570;-51
2023/01/09 02:29:46;;;;;;;9.83;8.83;;;4.50;99.90;;;;;;4989592;28;20464;-51
2023/01/09 02:32:26;;;;;;;10.00;8.80;;;4.40;99.90;;;;;;4987950;28;20487;-52
2023/01/09 02:35:01;;;;;;;9.13;8.23;;;4.40;99.90;;;;;;4986816;28;20514;-50
2023/01/09 02:37:36;;;;;;;9.40;8.10;;;4.40;99.90;;;;;;4986788;28;20483;-51
2023/01/09 02:40:10;;;;;;;9.40;8.50;;;4.40;99.90;;;;;;4990447;28;20464;-51
2023/01/09 02:42:38;;;;;;;10.50;9.43;;;4.40;99.90;;;;;;4990767;28;20459;-50
2023/01/09 02:45:05;;;;;;;10.60;9.60;;;4.40;99.90;;;;;;4991086;28;20468;-51
2023/01/09 02:47:41;;;;;;;11.70;9.40;;;4.40;99.90;;;;;;4990865;28;20484;-51
2023/01/09 02:50:12;;;;;;;9.67;8.70;;;4.40;99.90;;;;;;4991018;28;20546;-51
2023/01/09 02:53:00;;;;;;;11.43;10.10;;;4.40;99.90;;;;;;4989167;28;20495;-51
2023/01/09 02:55:38;;;;;;;9.70;8.70;;;4.40;99.90;;;;;;4988588;28;20468;-51
2023/01/09 02:58:15;;;;;;;10.63;9.53;;;4.30;99.90;;;;;;4992290;28;20944;-51
2023/01/09 03:00:50;;;;;;;10.60;9.50;;;4.30;99.90;;;;;;4987277;28;21067;-50
2023/01/09 03:03:24;;;;;;;10.93;9.93;;;4.20;99.90;;;;;;5003582;28;20510;-51
2023/01/09 03:05:55;;;;;;;13.90;11.50;;;4.20;99.90;;;;;;5009374;28;20452;-51
2023/01/09 03:08:26;;;;;;;10.87;9.73;;;4.20;99.90;;;;;;5007995;28;21159;-57
2023/01/09 03:10:59;;;;;;;11.50;10.30;;;4.20;99.90;;;;;;4998780;28;20538;-54
2023/01/09 03:13:30;;;;;;;13.10;10.53;;;4.20;99.90;;;;;;4993714;28;20464;-50
2023/01/09 03:16:00;;;;;;;12.10;10.90;;;4.20;99.90;;;;;;4992199;28;20547;-51
2023/01/09 03:18:31;;;;;;;13.00;11.30;;;4.10;99.90;;;;;;5003264;28;20472;-51
2023/01/09 03:20:57;;;;;;;12.50;11.30;;;4.10;99.90;;;;;;4989413;28;20543;-50
2023/01/09 03:23:24;;;;;;;12.27;10.43;;;4.10;99.90;;;;;;4991455;28;20452;-51
2023/01/09 03:25:51;;;;;;;12.33;11.10;;;4.10;99.90;;;;;;5001179;28;20471;-53
2023/01/09 03:28:25;;;;;;;13.60;12.17;;;4.10;99.90;;;;;;4992543;28;20866;-51
2023/01/09 03:30:51;;;;;;;17.90;11.20;;;4.00;99.90;;;;;;4995042;28;20881;-50
2023/01/09 03:33:18;;;;;;;12.70;11.17;;;4.00;99.90;;;;;;4993213;28;20518;-52
2023/01/09 03:35:46;;;;;;;12.83;10.63;;;4.00;99.90;;;;;;4991795;28;20878;-51
2023/01/09 03:38:13;;;;;;;11.80;10.57;;;4.00;99.90;;;;;;4994450;28;21064;-51
2023/01/09 03:40:42;;;;;;;14.30;11.20;;;4.00;99.90;;;;;;4992088;28;20510;-52
2023/01/09 03:43:08;;;;;;;11.30;10.20;;;3.90;99.90;;;;;;4999926;28;20470;-51
2023/01/09 03:45:35;;;;;;;13.67;10.13;;;4.00;99.90;;;;;;4992422;28;20468;-51
2023/01/09 03:48:01;;;;;;;12.03;10.87;;;4.00;99.90;;;;;;4994026;28;20500;-51
2023/01/09 03:50:28;;;;;;;14.67;11.13;;;4.10;99.90;;;;;;4991478;28;20953;-51
2023/01/09 03:52:56;;;;;;;14.10;12.07;;;4.20;99.90;;;;;;4992643;28;20479;-51
2023/01/09 03:55:23;;;;;;;12.07;10.80;;;4.20;99.90;;;;;;4993287;28;20460;-51
2023/01/09 03:57:51;;;;;;;12.10;10.50;;;4.20;99.90;;;;;;4989177;28;20577;-50
2023/01/09 04:00:18;;;;;;;11.60;10.03;;;4.30;99.90;;;;;;4989043;28;20463;-52
2023/01/09 04:02:45;;;;;;;14.17;12.10;;;4.30;99.90;;;;;;4992363;28;20515;-51
2023/01/09 04:05:12;;;;;;;11.97;10.70;;;4.40;99.90;;;;;;4991769;28;20478;-51
2023/01/09 04:07:39;;;;;;;13.83;10.63;;;4.40;99.90;;;;;;4995425;28;20494;-51
2023/01/09 04:10:07;;;;;;;12.43;11.23;;;4.40;99.90;;;;;;4997197;28;20521;-50
2023/01/09 04:12:34;;;;;;;13.30;11.17;;;4.40;99.90;;;;;;4990531;28;20464;-51
2023/01/09 04:15:01;;;;;;;11.50;10.23;;;4.40;99.90;;;;;;4988817;28;20467;-51
2023/01/09 04:17:27;;;;;;;14.60;9.97;;;4.50;99.90;;;;;;4989174;28;20513;-51
2023/01/09 04:19:54;;;;;;;14.33;10.60;;;4.50;99.90;;;;;;4986057;28;20459;-51
2023/01/09 04:22:20;;;;;;;14.93;11.70;;;4.60;99.90;;;;;;4987427;28;20539;-51
2023/01/09 04:24:47;;;;;;;11.97;10.87;;;4.60;99.90;;;;;;4984567;28;20464;-51
2023/01/09 04:27:15;;;;;;;12.47;10.40;;;4.60;99.90;;;;;;4983174;28;20989;-51
2023/01/09 04:29:41;;;;;;;15.60;11.87;;;4.60;99.90;;;;;;4989328;28;20471;-50
2023/01/09 04:32:08;;;;;;;12.37;11.07;;;4.60;99.90;;;;;;4986041;28;20519;-51
2023/01/09 04:34:34;;;;;;;12.53;11.27;;;4.60;99.90;;;;;;4991986;28;20475;-51
2023/01/09 04:37:02;;;;;;;13.77;11.80;;;4.60;99.90;;;;;;4994440;28;20495;-52
2023/01/09 04:39:28;;;;;;;14.30;11.93;;;4.60;99.90;;;;;;4992980;28;20467;-51
2023/01/09 04:41:55;;;;;;;12.70;11.10;;;4.60;99.90;;;;;;4998483;28;20483;-51
2023/01/09 04:44:25;;;;;;;12.17;10.97;;;4.70;99.90;;;;;;5001019;28;20466;-51
2023/01/09 04:46:53;;;;;;;12.43;11.13;;;4.70;99.90;;;;;;4997758;28;20498;-50
2023/01/09 04:49:19;;;;;;;12.50;11.20;;;4.70;99.90;;;;;;4998158;28;20957;-51
2023/01/09 04:51:46;;;;;;;14.07;11.70;;;4.70;99.90;;;;;;4997379;28;20460;-51
2023/01/09 04:54:13;;;;;;;13.27;11.40;;;4.80;99.90;;;;;;4993660;28;20492;-51
2023/01/09 04:56:40;;;;;;;12.03;10.67;;;4.80;99.90;;;;;;4991113;28;20564;-50
2023/01/09 04:59:07;;;;;;;13.07;11.37;;;4.80;99.90;;;;;;4982562;28;20511;-51
2023/01/09 05:01:35;;;;;;;14.17;11.17;;;4.80;99.90;;;;;;4993269;28;20502;-51
2023/01/09 05:04:03;;;;;;;15.80;11.03;;;4.80;99.90;;;;;;4996107;28;20467;-51
2023/01/09 05:06:30;;;;;;;14.10;12.43;;;4.80;99.90;;;;;;4993035;28;20503;-50
2023/01/09 05:08:57;;;;;;;14.73;11.63;;;4.80;99.90;;;;;;4984688;28;20463;-50
2023/01/09 05:11:24;;;;;;;13.40;11.83;;;4.80;99.90;;;;;;4991546;28;20471;-51
2023/01/09 05:13:51;;;;;;;13.03;11.63;;;4.80;99.90;;;;;;4993655;28;20545;-51
2023/01/09 05:16:17;;;;;;;13.23;11.13;;;4.80;99.90;;;;;;4999150;28;20462;-51
2023/01/09 05:18:45;;;;;;;13.67;12.10;;;4.80;99.90;;;;;;4994147;28;20459;-51
2023/01/09 05:21:12;;;;;;;14.33;11.77;;;4.80;99.90;;;;;;5001931;28;20467;-50
2023/01/09 05:23:39;;;;;;;13.20;11.60;;;4.80;99.90;;;;;;4991002;28;20870;-52
2023/01/09 05:26:06;;;;;;;13.23;11.90;;;4.80;99.90;;;;;;4994052;28;20476;-51
2023/01/09 05:28:32;;;;;;;13.60;12.03;;;4.80;99.90;;;;;;4992139;28;20526;-50
2023/01/09 05:30:59;;;;;;;14.30;12.80;;;4.80;99.90;;;;;;4987891;28;20885;-50
2023/01/09 05:33:26;;;;;;;15.27;12.70;;;4.80;99.90;;;;;;4986197;28;20464;-50
2023/01/09 05:35:54;;;;;;;13.00;11.70;;;4.80;99.90;;;;;;4987248;28;20470;-51
2023/01/09 05:38:20;;;;;;;13.27;11.90;;;4.80;99.90;;;;;;4994851;28;20479;-50
2023/01/09 05:40:47;;;;;;;12.77;11.43;;;4.80;99.90;;;;;;4994060;28;20464;-51
2023/01/09 05:43:13;;;;;;;19.50;11.60;;;4.80;99.90;;;;;;4991422;28;20491;-51
2023/01/09 05:45:40;;;;;;;14.90;11.57;;;4.80;99.90;;;;;;4987898;28;20538;-53
2023/01/09 05:48:06;;;;;;;13.60;12.03;;;4.80;99.90;;;;;;4988550;28;20491;-53
2023/01/09 05:50:33;;;;;;;13.00;11.47;;;4.80;99.90;;;;;;4990860;28;20472;-52
2023/01/09 05:53:01;;;;;;;13.70;12.23;;;4.80;99.90;;;;;;5004141;28;20457;-52
2023/01/09 05:55:27;;;;;;;13.70;11.63;;;4.80;99.90;;;;;;4999417;28;20526;-53
2023/01/09 05:57:54;;;;;;;17.83;13.00;;;4.80;99.90;;;;;;5002232;28;20489;-55
2023/01/09 06:00:21;;;;;;;14.87;11.50;;;4.90;99.90;;;;;;5000021;28;20507;-52
2023/01/09 06:02:48;;;;;;;13.43;10.77;;;4.90;99.90;;;;;;4997761;28;21060;-52
2023/01/09 06:05:14;;;;;;;14.70;12.33;;;4.90;99.90;;;;;;4988564;28;20479;-53
2023/01/09 06:07:41;;;;;;;13.23;11.40;;;5.00;99.90;;;;;;4989644;28;20491;-52
2023/01/09 06:10:12;;;;;;;14.60;10.83;;;5.00;99.90;;;;;;4990243;28;20467;-52
2023/01/09 06:12:38;;;;;;;13.47;11.30;;;5.00;99.90;;;;;;4995257;28;20949;-54
2023/01/09 06:15:06;;;;;;;13.93;11.87;;;5.10;99.90;;;;;;4986343;28;20476;-54
2023/01/09 06:17:32;;;;;;;12.27;10.77;;;5.10;99.90;;;;;;4988341;28;20491;-54
2023/01/09 06:19:59;;;;;;;13.10;10.70;;;5.10;99.90;;;;;;4990676;28;21223;-52
2023/01/09 06:22:26;;;;;;;11.30;10.10;;;5.20;99.90;;;;;;4990109;28;20479;-52
2023/01/09 06:24:52;;;;;;;10.63;9.40;;;5.20;99.90;;;;;;4992566;28;20476;-53
2023/01/09 06:27:20;;;;;;;11.20;9.57;;;5.20;99.90;;;;;;4988205;28;20993;-51
2023/01/09 06:29:47;;;;;;;16.33;10.27;;;5.30;99.90;;;;;;4994722;28;20945;-52
2023/01/09 06:32:13;;;;;;;14.57;9.73;;;5.30;99.90;;;;;;5000165;28;20467;-52
2023/01/09 06:34:40;;;;;;;9.93;8.77;;;5.30;99.90;;;;;;4993082;28;21028;-52
2023/01/09 06:37:07;;;;;;;12.70;9.53;;;5.40;99.90;;;;;;4992178;28;20495;-52
2023/01/09 06:39:33;;;;;;;12.10;10.50;;;5.40;99.90;;;;;;4997438;28;20501;-51
2023/01/09 06:42:00;;;;;;;14.67;10.40;;;5.40;99.90;;;;;;4988836;28;20550;-52
2023/01/09 06:44:28;;;;;;;18.13;15.17;;;5.50;99.90;;;;;;4986829;28;20518;-52
2023/01/09 06:46:54;;;;;;;18.00;16.10;;;5.50;99.90;;;;;;4985267;28;20546;-52
2023/01/09 06:49:22;;;;;;;25.17;22.67;;;5.50;99.90;;;;;;4986802;28;20954;-52
2023/01/09 06:51:49;;;;;;;14.57;13.07;;;5.50;99.90;;;;;;4992180;28;20465;-53
2023/01/09 06:54:16;;;;;;;35.40;30.20;;;5.50;99.90;;;;;;4990748;28;20469;-51
2023/01/09 06:56:42;;;;;;;34.87;26.60;;;5.60;99.90;;;;;;4985086;28;20487;-52
2023/01/09 06:59:09;;;;;;;14.13;12.53;;;5.50;99.90;;;;;;4988823;28;20520;-52
2023/01/09 07:01:38;;;;;;;12.27;10.97;;;5.60;99.90;;;;;;4990445;28;20515;-52
2023/01/09 07:04:05;;;;;;;20.90;18.60;;;5.50;99.90;;;;;;4991510;28;20471;-52
2023/01/09 07:06:32;;;;;;;16.00;11.37;;;5.50;99.90;;;;;;4992455;28;20495;-55
2023/01/09 07:08:59;;;;;;;12.77;11.37;;;5.50;99.90;;;;;;4990661;28;20464;-54
2023/01/09 07:11:25;;;;;;;14.93;10.40;;;5.50;99.90;;;;;;4993045;28;20503;-51
2023/01/09 07:13:52;;;;;;;15.10;11.70;;;5.50;99.90;;;;;;4994852;28;20459;-51
2023/01/09 07:16:18;;;;;;;12.53;11.20;;;5.50;99.90;;;;;;4996067;28;20961;-53
2023/01/09 07:18:46;;;;;;;12.27;10.90;;;5.50;99.90;;;;;;4993806;28;20471;-52
2023/01/09 07:21:13;;;;;;;13.57;11.90;;;5.50;99.90;;;;;;4992136;28;20468;-52
2023/01/09 07:23:40;;;;;;;14.30;11.03;;;5.50;99.90;;;;;;4989113;28;20557;-52
2023/01/09 07:26:06;;;;;;;13.47;12.07;;;5.50;99.90;;;;;;4990046;28;20479;-52
2023/01/09 07:28:33;;;;;;;14.50;11.67;;;5.40;99.90;;;;;;4990142;28;20468;-52
2023/01/09 07:31:01;;;;;;;16.43;12.77;;;5.40;99.90;;;;;;4993316;28;20494;-52
2023/01/09 07:33:27;;;;;;;13.53;12.13;;;5.40;99.90;;;;;;4992574;28;20492;-52
2023/01/09 07:35:56;;;;;;;16.13;13.33;;;5.40;99.90;;;;;;4993965;28;21017;-51
2023/01/09 07:38:22;;;;;;;13.93;11.10;;;5.40;99.90;;;;;;4991108;28;20542;-51
2023/01/09 07:40:49;;;;;;;13.73;12.00;;;5.40;99.90;;;;;;4991761;28;20903;-50
2023/01/09 07:43:15;;;;;;;15.90;13.70;;;5.40;99.90;;;;;;4994715;28;20495;-52
2023/01/09 07:45:42;;;;;;;15.27;11.60;;;5.40;99.90;;;;;;4990867;28;20529;-52
2023/01/09 07:48:09;;;;;;;16.50;12.70;;;5.40;99.90;;;;;;4991964;28;20519;-53
2023/01/09 07:50:35;;;;;;;16.87;13.27;;;5.40;99.90;;;;;;4992244;28;20558;-51
2023/01/09 07:53:03;;;;;;;14.30;12.20;;;5.40;99.90;;;;;;4990810;28;20460;-50
2023/01/09 07:55:30;;;;;;;18.03;13.83;;;5.50;99.90;;;;;;4988374;28;20529;-52
2023/01/09 07:57:57;;;;;;;15.90;12.50;;;5.50;99.90;;;;;;4991383;28;20521;-52
2023/01/09 08:00:23;;;;;;;16.23;12.70;;;5.50;99.90;;;;;;4987703;28;20510;-52
2023/01/09 08:02:53;;;;;;;12.73;11.30;;;5.50;99.90;;;;;;4993515;28;20495;-51
2023/01/09 08:05:21;;;;;;;18.30;12.17;;;5.50;99.90;;;;;;4988487;28;20954;-51
2023/01/09 08:07:49;;;;;;;13.50;12.00;;;5.50;99.90;;;;;;4996200;28;20523;-52
2023/01/09 08:10:18;;;;;;;15.53;13.30;;;5.50;99.90;;;;;;4989774;28;20502;-51
2023/01/09 08:12:46;;;;;;;16.63;12.30;;;5.50;99.90;;;;;;4990335;28;20466;-52
2023/01/09 08:15:13;;;;;;;14.20;12.13;;;5.50;99.90;;;;;;4990496;28;20474;-52
2023/01/09 08:17:41;;;;;;;15.83;13.00;;;5.50;99.90;;;;;;4984422;28;20869;-51
2023/01/09 08:20:10;;;;;;;15.00;12.60;;;5.60;99.90;;;;;;4989761;28;20559;-51
2023/01/09 08:22:36;;;;;;;17.97;12.47;;;5.60;99.90;;;;;;4989246;28;20488;-51
2023/01/09 08:25:03;;;;;;;13.83;12.37;;;5.60;99.90;;;;;;4988884;28;21032;-52
2023/01/09 08:27:31;;;;;;;18.03;12.43;;;5.60;99.90;;;;;;4989363;28;20541;-51
2023/01/09 08:29:57;;;;;;;14.47;12.47;;;5.60;99.90;;;;;;4985199;28;20472;-52
2023/01/09 08:32:24;;;;;;;17.40;12.90;;;5.60;99.90;;;;;;4989594;28;20874;-53
2023/01/09 08:34:52;;;;;;;14.03;11.10;;;5.60;99.90;;;;;;4983498;28;20455;-52
2023/01/09 08:37:18;;;;;;;17.70;12.23;;;5.60;99.90;;;;;;4989284;28;20487;-53
2023/01/09 08:39:45;;;;;;;14.67;12.50;;;5.60;99.90;;;;;;4985177;28;20471;-53
2023/01/09 08:47:41;;;;;;;15.90;11.63;;;5.70;99.90;;;;;;4995267;28;21040;-53
2023/01/09 08:50:09;;;;;;;14.83;11.90;;;5.70;99.90;;;;;;5000212;28;20463;-53
2023/01/09 08:52:35;;;;;;;16.00;11.87;;;5.80;99.90;;;;;;4999581;28;20572;-54
2023/01/09 08:55:02;;;;;;;14.70;11.30;;;5.80;99.90;;;;;;4984382;28;20880;-52
2023/01/09 08:57:29;;;;;;;17.60;12.90;;;5.80;99.90;;;;;;4988483;28;20534;-53
2023/01/09 08:59:57;;;;;;;13.13;11.13;;;5.90;99.90;;;;;;4990722;28;20459;-53
2023/01/09 09:02:23;;;;;;;13.00;11.13;;;5.90;99.90;;;;;;4987212;28;20953;-54
2023/01/09 09:04:51;;;;;;;17.90;12.43;;;5.90;99.90;;;;;;4987684;28;20472;-52
2023/01/09 09:07:25;;;;;;;17.73;11.00;;;6.00;99.90;;;;;;4986948;28;21064;-53
2023/01/09 09:09:51;;;;;;;16.80;11.33;;;5.90;99.90;;;;;;4991128;28;20456;-53
2023/01/09 09:12:18;;;;;;;18.57;12.20;;;6.00;99.90;;;;;;4985139;28;20535;-52
2023/01/09 09:17:31;;;;;;;11.90;10.20;;;6.00;99.90;;;;;;4989923;28;20481;-53
2023/01/09 09:19:58;;;;;;;14.60;11.90;;;6.00;99.90;;;;;;4991355;28;20467;-53
2023/01/09 09:22:25;;;;;;;18.07;13.70;;;6.00;99.90;;;;;;4991949;28;20521;-54
2023/01/09 09:24:51;;;;;;;15.10;11.60;;;6.00;99.90;;;;;;4987357;28;20515;-52
2023/01/09 09:27:18;;;;;;;15.17;11.07;;;6.10;99.90;;;;;;4991590;28;20487;-53
2023/01/09 09:29:45;;;;;;;15.10;11.97;;;6.10;99.90;;;;;;4993272;28;20548;-53
2023/01/09 09:32:12;;;;;;;14.50;11.43;;;6.10;99.90;;;;;;4990212;28;20980;-53
2023/01/09 09:34:40;;;;;;;12.77;11.27;;;6.10;99.90;;;;;;4989838;28;20529;-52
2023/01/09 09:37:06;;;;;;;16.47;11.80;;;6.10;99.90;;;;;;4990824;28;20492;-52
2023/01/09 09:39:33;;;;;;;14.03;11.07;;;6.10;99.90;;;;;;4992651;28;21175;-54
2023/01/09 09:45:30;;;;;;;14.80;10.80;;;6.20;99.90;;;;;;4987080;28;21122;-55
2023/01/09 09:48:05;;;;;;;11.63;9.70;;;6.20;99.90;;;;;;4997436;28;20493;-53
2023/01/09 09:50:56;;;;;;;14.50;10.97;;;6.30;99.90;;;;;;4991138;28;20877;-53
2023/01/09 09:53:29;;;;;;;13.43;10.10;;;6.30;99.90;;;;;;4990339;28;20463;-53
2023/01/09 09:55:57;;;;;;;13.97;10.30;;;6.30;99.90;;;;;;4992647;28;20464;-52
2023/01/09 09:58:29;;;;;;;15.37;10.90;;;6.30;99.90;;;;;;4987934;28;20576;-54
2023/01/09 10:00:57;;;;;;;12.10;10.80;;;6.30;99.90;;;;;;4990688;28;20465;-53
2023/01/09 10:03:27;;;;;;;12.20;10.27;;;6.40;99.90;;;;;;4990257;28;20491;-54
2023/01/09 10:05:58;;;;;;;11.53;10.13;;;6.40;99.90;;;;;;4993472;28;20518;-54
2023/01/09 10:08:34;;;;;;;13.80;10.97;;;6.40;99.90;;;;;;4992518;28;20487;-54
2023/01/09 10:11:01;;;;;;;12.50;10.30;;;6.50;99.90;;;;;;4990978;28;20468;-54
2023/01/09 10:16:27;;;;;;;12.60;10.63;;;6.70;99.90;;;;;;4994204;28;20522;-53
2023/01/09 10:19:04;;;;;;;12.47;10.17;;;6.70;99.90;;;;;;4990417;28;20479;-53
2023/01/09 10:21:40;;;;;;;12.00;10.70;;;6.80;99.90;;;;;;4990465;28;20526;-54
2023/01/09 10:24:20;;;;;;;13.23;9.97;;;6.90;99.90;;;;;;4988779;28;20491;-54
2023/01/09 10:26:50;;;;;;;15.00;9.60;;;7.00;99.90;;;;;;4993038;28;20484;-53
2023/01/09 10:29:48;;;;;;;12.63;9.77;;;7.10;99.90;;;;;;4986161;28;21020;-53
2023/01/09 10:32:33;;;;;;;16.87;8.70;;;7.30;99.90;;;;;;4990592;28;20465;-53
2023/01/09 10:35:18;;;;;;;8.73;7.80;;;7.20;99.90;;;;;;4989710;28;20514;-53
2023/01/09 10:37:52;;;;;;;10.27;8.43;;;7.10;99.90;;;;;;4991975;28;20526;-53
2023/01/09 10:40:22;;;;;;;10.67;8.00;;;7.20;99.90;;;;;;4990835;28;20534;-53
2023/01/09 10:42:54;;;;;;;8.90;7.50;;;7.10;99.90;;;;;;4991834;28;20542;-54
2023/01/09 10:45:24;;;;;;;7.87;6.80;;;7.10;99.90;;;;;;4992246;28;20471;-53
2023/01/09 10:47:53;;;;;;;11.40;7.67;;;7.10;99.90;;;;;;4992711;28;21278;-54
2023/01/09 10:50:22;;;;;;;8.83;7.53;;;7.10;99.90;;;;;;4987803;28;20472;-53
2023/01/09 10:52:52;;;;;;;9.60;8.33;;;7.10;99.90;;;;;;4990210;28;20467;-54
2023/01/09 10:55:28;;;;;;;8.60;7.40;;;7.10;99.90;;;;;;4993620;28;20536;-54
2023/01/09 10:57:58;;;;;;;7.27;6.43;;;7.10;99.90;;;;;;4989959;28;20494;-53
2023/01/09 11:00:25;;;;;;;7.63;6.90;;;7.10;99.90;;;;;;4990601;28;20464;-52
2023/01/09 11:02:53;;;;;;;7.73;6.93;;;7.10;99.90;;;;;;4990867;28;20893;-52
2023/01/09 11:05:22;;;;;;;8.00;7.20;;;7.20;99.90;;;;;;4982904;28;20982;-55
2023/01/09 11:07:55;;;;;;;8.57;7.00;;;7.20;99.90;;;;;;4990522;28;20483;-54
2023/01/09 11:10:21;;;;;;;7.67;6.77;;;7.10;99.90;;;;;;4991287;28;20460;-54
2023/01/09 11:12:48;;;;;;;9.90;7.73;;;7.10;99.90;;;;;;4991125;28;20464;-53
2023/01/09 11:15:28;;;;;;;9.40;7.60;;;7.10;99.90;;;;;;4986378;28;20452;-54
2023/01/09 11:18:13;;;;;;;7.63;6.93;;;7.10;99.90;;;;;;4989878;28;20490;-54
2023/01/09 11:20:40;;;;;;;7.00;6.40;;;7.10;99.90;;;;;;4982574;28;20468;-52
2023/01/09 11:23:26;;;;;;;10.13;6.63;;;7.10;99.90;;;;;;4984657;28;20476;-55
2023/01/09 11:25:55;;;;;;;6.30;5.77;;;7.10;99.90;;;;;;4992432;28;20968;-54
2023/01/09 11:28:21;;;;;;;6.83;6.23;;;7.20;99.90;;;;;;4987144;28;20491;-53
2023/01/09 11:30:53;;;;;;;6.33;5.60;;;7.10;99.90;;;;;;4992864;28;20527;-54
2023/01/09 11:33:23;;;;;;;5.50;5.10;;;7.20;99.90;;;;;;4992672;28;20491;-53
2023/01/09 11:35:57;;;;;;;5.57;5.03;;;7.20;99.90;;;;;;4987061;28;20819;-53
2023/01/09 11:38:26;;;;;;;10.00;5.70;;;7.20;99.90;;;;;;4990508;28;20495;-52
2023/01/09 11:40:55;;;;;;;5.60;5.10;;;7.20;99.90;;;;;;5005682;23;21324;-54
2023/01/09 11:43:33;;;;;;;6.23;5.63;;;7.30;99.90;;;;;;4991754;28;20545;-54
2023/01/09 11:46:02;;;;;;;6.43;5.00;;;7.30;99.90;;;;;;4991140;28;20471;-55
2023/01/09 11:48:32;;;;;;;9.87;4.57;;;7.30;99.90;;;;;;4987891;28;20521;-55
2023/01/09 11:51:00;;;;;;;4.43;4.00;;;7.30;99.90;;;;;;4987287;28;20862;-57
2023/01/09 11:53:28;;;;;;;4.93;4.10;;;7.30;99.90;;;;;;4990343;28;20447;-55
2023/01/09 11:56:00;;;;;;;4.40;4.00;;;7.30;99.90;;;;;;4990330;28;20508;-56
2023/01/09 11:58:31;;;;;;;6.53;4.23;;;7.30;99.90;;;;;;4991036;28;21009;-54
2023/01/09 12:01:07;;;;;;;4.63;4.13;;;7.30;99.90;;;;;;4991016;28;21008;-56
2023/01/09 12:03:45;;;;;;;6.10;4.40;;;7.30;99.90;;;;;;4991537;28;20484;-54
2023/01/09 12:06:22;;;;;;;3.50;3.30;;;7.30;99.90;;;;;;4986816;28;20541;-55
2023/01/09 12:08:56;;;;;;;7.10;4.23;;;7.30;99.90;;;;;;4983899;28;20514;-55
2023/01/09 12:11:30;;;;;;;3.87;3.67;;;7.40;99.90;;;;;;4989856;28;20542;-55
2023/01/09 12:14:31;;;;;;;4.23;3.83;;;7.40;99.90;;;;;;4992006;28;20792;-54
2023/01/09 12:17:35;;;;;;;2.90;2.70;;;7.40;99.90;;;;;;4992280;28;20461;-55
2023/01/09 12:20:20;;;;;;;2.43;2.23;;;7.40;48.90;;;;;;4991586;28;20962;-56
2023/01/09 12:22:56;;;;;;;2.10;1.83;;;7.50;48.30;;;;;;4981625;28;20483;-54
2023/01/09 12:25:33;;;;;;;2.30;2.10;;;7.50;67.70;;;;;;4990297;28;20487;-54
2023/01/09 12:28:17;;;;;;;4.03;2.10;;;7.80;66.40;;;;;;4989426;28;20884;-53
2023/01/09 12:30:56;;;;;;;2.40;1.50;;;8.60;96.10;;;;;;4972685;28;20530;-55
2023/01/09 12:33:38;;;;;;;3.20;1.70;;;8.60;99.90;;;;;;4971532;28;20936;-54
2023/01/09 12:36:15;;;;;;;2.57;2.00;;;8.80;99.90;;;;;;4982507;28;20574;-55
2023/01/09 12:38:48;;;;;;;6.50;2.23;;;9.20;99.90;;;;;;4976972;28;20464;-54
2023/01/09 12:41:56;;;;;;;6.20;1.90;;;9.00;99.90;;;;;;4989996;28;20483;-55
2023/01/09 12:44:51;;;;;;;2.93;2.30;;;9.00;99.90;;;;;;4990118;28;20992;-55
2023/01/09 12:47:41;;;;;;;4.67;2.93;;;8.60;99.90;;;;;;4992972;28;20546;-55
2023/01/09 12:50:23;;;;;;;5.80;2.97;;;8.00;99.90;;;;;;4988506;28;20471;-55
2023/01/09 12:53:02;;;;;;;6.20;2.63;;;7.70;84.00;;;;;;4983524;28;20468;-55
2023/01/09 12:55:34;;;;;;;2.50;2.03;;;7.50;69.30;;;;;;4989930;28;20874;-55
2023/01/09 12:58:08;;;;;;;4.10;2.13;;;7.30;59.80;;;;;;4993722;28;20468;-55
2023/01/09 13:00:41;;;;;;;4.67;2.07;;;7.20;64.40;;;;;;4993672;28;21034;-55
2023/01/09 13:03:16;;;;;;;3.40;1.73;;;7.10;69.20;;;;;;4993005;28;20464;-55
2023/01/09 13:05:46;;;;;;;9.43;2.40;;;7.10;61.90;;;;;;4988713;28;20482;-54
2023/01/09 13:08:17;;;;;;;5.93;2.50;;;7.10;54.10;;;;;;4991730;28;20514;-54
2023/01/09 13:10:47;;;;;;;6.13;2.53;;;7.10;49.70;;;;;;4995849;28;21043;-53
2023/01/09 13:13:20;;;;;;;11.10;2.27;;;7.20;52.80;;;;;;4991823;28;21035;-54
2023/01/09 13:15:50;;;;;;;6.80;2.67;;;7.20;55.50;;;;;;4994366;28;20835;-55
2023/01/09 13:18:24;;;;;;;3.70;2.50;;;7.20;60.00;;;;;;4977807;28;20526;-55